createdAt,value
2023-01-15T00:00:10.802Z,97080.91
2023-01-15T00:02:17.423Z,97085.16
2023-01-15T00:04:22.471Z,97073.88
2023-01-15T00:06:32.780Z,97065.97
2023-01-15T00:08:38.371Z,97065.88
2023-01-15T00:10:43.303Z,97058.25
2023-01-15T00:12:48.157Z,97050.09
2023-01-15T00:14:53.215Z,97042.47
2023-01-15T00:16:58.106Z,97039.88
2023-01-15T00:19:04.726Z,97036.34
2023-01-15T00:21:10.909Z,97029.56
2023-01-15T00:23:38.602Z,97039.88
2023-01-15T00:25:55.888Z,97034.75
2023-01-15T00:27:58.263Z,97035.78
2023-01-15T00:30:03.075Z,97035.88
2023-01-15T00:32:09.821Z,97025.47
2023-01-15T00:34:14.745Z,97026.38
2023-01-15T00:36:19.669Z,97018.50
2023-01-15T00:38:27.069Z,97024.53
2023-01-15T00:40:34.688Z,97017.75
2023-01-15T00:42:39.508Z,97016.00
2023-01-15T00:44:44.400Z,97016.75
2023-01-15T00:46:49.454Z,97011.66
2023-01-15T00:48:54.315Z,97016.84
2023-01-15T00:51:00.521Z,97006.28
2023-01-15T00:53:05.409Z,97015.91
2023-01-15T00:55:13.082Z,97003.00
2023-01-15T00:57:19.069Z,96995.19
2023-01-15T00:59:26.855Z,97006.34
2023-01-15T01:01:32.043Z,97005.91
2023-01-15T01:03:37.057Z,97002.16
2023-01-15T01:05:41.891Z,96994.09
2023-01-15T01:07:46.728Z,96997.16
2023-01-15T01:09:51.982Z,96996.22
2023-01-15T01:12:00.570Z,96995.16
2023-01-15T01:14:05.499Z,96988.09
2023-01-15T01:16:24.951Z,96990.31
2023-01-15T01:18:30.901Z,96997.09
2023-01-15T01:20:37.041Z,96995.97
2023-01-15T01:22:43.585Z,96994.00
2023-01-15T01:24:51.464Z,96988.53
2023-01-15T01:26:57.227Z,96984.81
2023-01-15T01:29:05.955Z,96979.41
2023-01-15T01:31:12.151Z,96982.00
2023-01-15T01:33:19.672Z,96967.88
2023-01-15T01:35:24.468Z,96968.81
2023-01-15T01:37:30.736Z,96970.31
2023-01-15T01:39:35.632Z,96961.75
2023-01-15T01:41:40.624Z,96961.94
2023-01-15T01:44:01.198Z,96962.38
2023-01-15T01:46:08.908Z,96954.03
2023-01-15T01:48:14.160Z,96946.31
2023-01-15T01:50:22.120Z,96941.75
2023-01-15T01:52:30.452Z,96933.94
2023-01-15T01:54:38.929Z,96928.66
2023-01-15T01:56:44.799Z,96919.09
2023-01-15T01:58:55.071Z,96925.19
2023-01-15T02:01:00.390Z,96923.97
2023-01-15T02:03:10.711Z,96928.16
2023-01-15T02:05:20.698Z,96914.22
2023-01-15T02:07:28.005Z,96912.03
2023-01-15T02:09:33.173Z,96909.94
2023-01-15T02:11:38.827Z,96913.28
2023-01-15T02:13:50.316Z,96912.13
2023-01-15T02:16:03.362Z,96898.28
2023-01-15T02:18:19.665Z,96899.66
2023-01-15T02:20:32.496Z,96894.56
2023-01-15T02:22:47.958Z,96897.19
2023-01-15T02:25:04.650Z,96886.56
2023-01-15T02:27:18.132Z,96885.34
2023-01-15T02:29:31.903Z,96884.28
2023-01-15T02:31:40.281Z,96883.44
2023-01-15T02:33:50.824Z,96884.19
2023-01-15T02:36:01.155Z,96873.03
2023-01-15T02:38:13.956Z,96867.09
2023-01-15T02:40:21.557Z,96871.66
2023-01-15T02:42:33.262Z,96870.63
2023-01-15T02:44:43.967Z,96855.22
2023-01-15T02:46:53.219Z,96855.94
2023-01-15T02:49:00.289Z,96864.59
2023-01-15T02:51:12.974Z,96859.50
2023-01-15T02:53:33.411Z,96848.16
2023-01-15T02:55:43.693Z,96850.13
2023-01-15T02:57:56.245Z,96843.75
2023-01-15T03:00:06.748Z,96838.56
2023-01-15T03:02:16.795Z,96844.59
2023-01-15T03:04:26.550Z,96837.59
2023-01-15T03:06:40.220Z,96832.41
2023-01-15T03:08:46.226Z,96830.88
2023-01-15T03:10:55.712Z,96823.88
2023-01-15T03:13:06.277Z,96819.31
2023-01-15T03:15:44.494Z,96822.66
2023-01-15T03:17:56.833Z,96818.47
2023-01-15T03:20:09.444Z,96825.25
2023-01-15T03:22:19.932Z,96824.09
2023-01-15T03:24:30.468Z,96817.31
2023-01-15T03:26:36.433Z,96824.00
2023-01-15T03:28:46.132Z,96819.41
2023-01-15T03:30:51.904Z,96814.00
2023-01-15T03:32:58.355Z,96817.44
2023-01-15T03:35:04.287Z,96809.63
2023-01-15T03:37:10.380Z,96819.00
2023-01-15T03:39:16.028Z,96810.47
2023-01-15T03:41:43.674Z,96813.69
2023-01-15T03:43:59.163Z,96811.00
2023-01-15T03:46:09.644Z,96817.03
2023-01-15T03:48:23.564Z,96813.09
2023-01-15T03:50:34.482Z,96818.16
2023-01-15T03:52:47.989Z,96814.84
2023-01-15T03:55:02.380Z,96806.94
2023-01-15T03:57:13.990Z,96799.31
2023-01-15T03:59:26.279Z,96799.94
2023-01-15T04:01:42.732Z,96800.88
2023-01-15T04:03:50.630Z,96800.28
2023-01-15T04:05:59.679Z,96804.63
2023-01-15T04:08:07.507Z,96799.75
2023-01-15T04:10:14.621Z,96801.53
2023-01-15T04:12:19.503Z,96803.59
2023-01-15T04:14:32.750Z,96804.34
2023-01-15T04:16:44.250Z,96806.19
2023-01-15T04:18:50.744Z,96808.06
2023-01-15T04:20:56.797Z,96823.16
2023-01-15T04:23:01.664Z,96799.00
2023-01-15T04:25:06.978Z,96817.66
2023-01-15T04:27:13.577Z,96807.63
2023-01-15T04:29:18.355Z,96813.97
2023-01-15T04:31:25.955Z,96812.41
2023-01-15T04:33:30.832Z,96819.50
2023-01-15T04:35:36.230Z,96808.97
2023-01-15T04:37:41.076Z,96806.78
2023-01-15T04:39:46.346Z,96805.75
2023-01-15T04:42:05.440Z,96797.09
2023-01-15T04:44:07.909Z,96787.81
2023-01-15T04:46:12.851Z,96793.63
2023-01-15T04:48:20.296Z,96786.69
2023-01-15T04:50:25.052Z,96798.84
2023-01-15T04:52:29.997Z,96783.97
2023-01-15T04:54:34.957Z,96782.09
2023-01-15T04:56:42.961Z,96782.41
2023-01-15T04:58:47.869Z,96772.94
2023-01-15T05:00:52.711Z,96752.94
2023-01-15T05:02:57.613Z,96757.13
2023-01-15T05:05:05.077Z,96754.72
2023-01-15T05:07:09.965Z,96761.28
2023-01-15T05:09:14.796Z,96754.09
2023-01-15T05:11:19.852Z,96745.47
2023-01-15T05:13:24.686Z,96740.66
2023-01-15T05:15:29.583Z,96745.16
2023-01-15T05:17:35.570Z,96729.34
2023-01-15T05:19:40.594Z,96728.38
2023-01-15T05:21:48.291Z,96722.34
2023-01-15T05:23:55.876Z,96727.56
2023-01-15T05:26:00.853Z,96714.22
2023-01-15T05:28:05.778Z,96722.97
2023-01-15T05:30:12.304Z,96715.78
2023-01-15T05:32:17.181Z,96712.56
2023-01-15T05:34:22.008Z,96719.41
2023-01-15T05:36:29.121Z,96715.78
2023-01-15T05:38:37.105Z,96710.28
2023-01-15T05:40:41.894Z,96713.56
2023-01-15T05:42:46.861Z,96707.34
2023-01-15T05:44:51.871Z,96710.78
2023-01-15T05:46:58.787Z,96710.66
2023-01-15T05:49:04.333Z,96708.19
2023-01-15T05:51:09.342Z,96705.16
2023-01-15T05:53:14.139Z,96701.00
2023-01-15T05:55:21.702Z,96711.94
2023-01-15T05:57:26.518Z,96717.75
2023-01-15T05:59:33.266Z,96721.28
2023-01-15T06:01:38.717Z,96716.19
2023-01-15T06:03:44.364Z,96725.44
2023-01-15T06:05:53.397Z,96730.66
2023-01-15T06:07:59.995Z,96737.13
2023-01-15T06:10:06.219Z,96725.03
2023-01-15T06:12:13.684Z,96743.28
2023-01-15T06:14:19.061Z,96729.72
2023-01-15T06:16:25.273Z,96734.03
2023-01-15T06:18:30.205Z,96737.00
2023-01-15T06:20:38.032Z,96765.47
2023-01-15T06:22:42.833Z,96766.50
2023-01-15T06:24:47.664Z,96839.72
2023-01-15T06:26:53.003Z,96883.25
2023-01-15T06:29:02.023Z,96873.75
2023-01-15T06:31:08.528Z,96886.84
2023-01-15T06:33:13.387Z,96896.59
2023-01-15T06:35:18.394Z,96913.66
2023-01-15T06:37:23.231Z,96917.66
2023-01-15T06:39:28.172Z,96918.56
2023-01-15T06:41:45.368Z,96923.03
2023-01-15T06:44:08.379Z,96943.38
2023-01-15T06:46:28.779Z,96940.13
2023-01-15T06:48:33.740Z,96948.44
2023-01-15T06:50:38.667Z,96970.63
2023-01-15T06:52:43.593Z,96980.75
2023-01-15T06:54:48.668Z,96966.72
2023-01-15T06:56:53.559Z,96970.31
2023-01-15T06:58:58.979Z,96963.94
2023-01-15T07:01:03.893Z,96972.94
2023-01-15T07:03:14.313Z,96971.63
2023-01-15T07:05:19.387Z,96975.41
2023-01-15T07:07:25.182Z,96975.19
2023-01-15T07:09:29.990Z,96983.97
2023-01-15T07:11:35.809Z,96987.66
2023-01-15T07:13:40.651Z,96990.13
2023-01-15T07:15:45.494Z,96993.66
2023-01-15T07:17:50.299Z,96998.31
2023-01-15T07:19:57.670Z,96987.72
2023-01-15T07:22:02.491Z,96993.00
2023-01-15T07:24:08.463Z,96993.91
2023-01-15T07:26:13.307Z,96995.66
2023-01-15T07:28:18.389Z,97006.94
2023-01-15T07:30:23.215Z,96995.22
2023-01-15T07:32:28.115Z,97015.09
2023-01-15T07:34:33.048Z,97015.41
2023-01-15T07:36:40.968Z,97014.88
2023-01-15T07:38:45.842Z,97000.06
2023-01-15T07:41:11.409Z,97016.47
2023-01-15T07:43:28.756Z,97025.09
2023-01-15T07:45:51.965Z,97039.53
2023-01-15T07:48:09.857Z,97051.59
2023-01-15T07:50:17.329Z,97061.84
2023-01-15T07:52:25.584Z,97077.00
2023-01-15T07:54:30.554Z,97069.53
2023-01-15T07:56:35.485Z,97079.25
2023-01-15T07:58:40.306Z,97095.06
2023-01-15T08:00:45.179Z,97108.91
2023-01-15T08:02:50.970Z,97125.63
2023-01-15T08:04:55.970Z,97129.34
2023-01-15T08:07:02.886Z,97145.16
2023-01-15T08:09:10.511Z,97158.41
2023-01-15T08:11:27.780Z,97152.13
2023-01-15T08:13:47.599Z,97159.97
2023-01-15T08:15:52.448Z,97156.34
2023-01-15T08:17:57.257Z,97155.41
2023-01-15T08:20:02.248Z,97157.38
2023-01-15T08:22:07.189Z,97156.09
2023-01-15T08:24:14.728Z,97163.63
2023-01-15T08:26:19.562Z,97178.28
2023-01-15T08:28:24.735Z,97180.78
2023-01-15T08:30:29.555Z,97181.69
2023-01-15T08:32:35.044Z,97184.88
2023-01-15T08:34:39.974Z,97180.47
2023-01-15T08:36:44.864Z,97182.41
2023-01-15T08:38:52.049Z,97196.88
2023-01-15T08:41:03.868Z,97187.41
2023-01-15T08:43:08.664Z,97201.59
2023-01-15T08:45:14.941Z,97201.59
2023-01-15T08:47:20.480Z,97194.75
2023-01-15T08:49:25.570Z,97191.56
2023-01-15T08:51:30.524Z,97202.91
2023-01-15T08:53:35.481Z,97197.25
2023-01-15T08:55:41.009Z,97198.59
2023-01-15T08:57:48.682Z,97197.19
2023-01-15T08:59:53.538Z,97192.31
2023-01-15T09:01:58.462Z,97195.16
2023-01-15T09:04:03.313Z,97190.31
2023-01-15T09:06:08.835Z,97192.31
2023-01-15T09:08:13.647Z,97190.44
2023-01-15T09:10:19.745Z,97194.56
2023-01-15T09:12:26.621Z,97197.97
2023-01-15T09:14:59.717Z,97211.38
2023-01-15T09:16:58.987Z,97220.41
2023-01-15T09:19:03.932Z,97216.06
2023-01-15T09:21:09.046Z,97225.69
2023-01-15T09:23:13.955Z,97228.22
2023-01-15T09:25:20.184Z,97260.63
2023-01-15T09:27:25.175Z,97242.25
2023-01-15T09:29:29.994Z,97246.50
2023-01-15T09:31:37.541Z,97243.31
2023-01-15T09:33:42.333Z,97232.47
2023-01-15T09:35:51.241Z,97236.09
2023-01-15T09:37:56.567Z,97250.00
2023-01-15T09:40:02.486Z,97244.88
2023-01-15T09:42:16.304Z,97247.34
2023-01-15T09:44:33.728Z,97256.59
2023-01-15T09:46:52.468Z,97259.25
2023-01-15T09:49:04.647Z,97268.41
2023-01-15T09:51:19.593Z,97252.63
2023-01-15T09:53:45.792Z,97268.28
2023-01-15T09:55:53.411Z,97265.53
2023-01-15T09:58:01.957Z,97266.47
2023-01-15T10:00:09.046Z,97270.25
2023-01-15T10:02:28.781Z,97273.16
2023-01-15T10:04:40.118Z,97270.38
2023-01-15T10:06:48.781Z,97275.50
2023-01-15T10:09:04.458Z,97269.44
2023-01-15T10:11:45.741Z,97285.75
2023-01-15T10:13:52.544Z,97274.06
2023-01-15T10:15:58.674Z,97270.13
2023-01-15T10:18:08.899Z,97276.97
2023-01-15T10:20:40.766Z,97278.56
2023-01-15T10:22:59.690Z,97278.75
2023-01-15T10:25:07.300Z,97290.88
2023-01-15T10:27:21.079Z,97289.50
2023-01-15T10:29:33.178Z,97292.81
2023-01-15T10:31:54.132Z,97285.53
2023-01-15T10:34:22.755Z,97292.22
2023-01-15T10:36:36.484Z,97288.03
2023-01-15T10:38:48.610Z,97282.03
2023-01-15T10:41:20.389Z,97277.41
2023-01-15T10:43:30.446Z,97288.47
2023-01-15T10:45:39.367Z,97292.53
2023-01-15T10:47:51.283Z,97295.34
2023-01-15T10:50:00.211Z,97291.56
2023-01-15T10:52:16.739Z,97297.91
2023-01-15T10:54:28.907Z,97284.50
2023-01-15T10:56:40.554Z,97280.03
2023-01-15T10:58:52.218Z,97290.25
2023-01-15T11:01:02.625Z,97287.66
2023-01-15T11:03:11.844Z,97281.41
2023-01-15T11:05:22.600Z,97297.09
2023-01-15T11:07:35.864Z,97293.38
2023-01-15T11:09:41.095Z,97302.25
2023-01-15T11:12:01.847Z,97295.78
2023-01-15T11:14:19.152Z,97303.13
2023-01-15T11:16:40.018Z,97300.59
2023-01-15T11:19:00.249Z,97288.50
2023-01-15T11:21:14.665Z,97285.63
2023-01-15T11:23:23.513Z,97297.91
2023-01-15T11:25:31.242Z,97301.28
2023-01-15T11:27:38.730Z,97304.66
2023-01-15T11:29:46.780Z,97309.69
2023-01-15T11:31:52.259Z,97312.47
2023-01-15T11:34:02.287Z,97326.53
2023-01-15T11:36:21.942Z,97322.41
2023-01-15T11:38:28.277Z,97338.66
2023-01-15T11:40:33.630Z,97325.47
2023-01-15T11:42:53.325Z,97322.44
2023-01-15T11:45:12.776Z,97331.34
2023-01-15T11:47:34.156Z,97333.78
2023-01-15T11:49:52.086Z,97333.19
2023-01-15T11:52:01.389Z,97344.25
2023-01-15T11:54:11.056Z,97341.88
2023-01-15T11:56:19.336Z,97334.38
2023-01-15T11:58:25.139Z,97334.94
2023-01-15T12:00:33.846Z,97321.44
2023-01-15T12:02:42.971Z,97325.03
2023-01-15T12:04:55.651Z,97340.50
2023-01-15T12:07:04.692Z,97345.53
2023-01-15T12:09:21.754Z,97353.88
2023-01-15T12:11:59.836Z,97358.75
2023-01-15T12:14:21.877Z,97370.00
2023-01-15T12:16:35.648Z,97378.97
2023-01-15T12:18:53.088Z,97374.63
2023-01-15T12:21:06.759Z,97377.22
2023-01-15T12:23:40.020Z,97386.66
2023-01-15T12:25:56.015Z,97369.75
2023-01-15T12:28:04.832Z,97374.56
2023-01-15T12:30:22.212Z,97374.59
2023-01-15T12:32:32.719Z,97376.72
2023-01-15T12:34:44.507Z,97380.97
2023-01-15T12:36:55.696Z,97384.34
2023-01-15T12:39:06.616Z,97386.88
2023-01-15T12:41:19.253Z,97372.69
2023-01-15T12:43:40.351Z,97365.84
2023-01-15T12:45:50.952Z,97374.78
2023-01-15T12:48:03.001Z,97386.31
2023-01-15T12:50:23.397Z,97378.22
2023-01-15T12:52:33.994Z,97379.59
2023-01-15T12:54:47.692Z,97379.59
2023-01-15T12:57:02.935Z,97390.84
2023-01-15T12:59:13.232Z,97394.63
2023-01-15T13:01:32.808Z,97391.41
2023-01-15T13:03:51.091Z,97413.72
2023-01-15T13:06:00.743Z,97410.78
2023-01-15T13:08:13.615Z,97428.44
2023-01-15T13:10:25.138Z,97444.41
2023-01-15T13:12:31.959Z,97441.44
2023-01-15T13:14:37.726Z,97468.81
2023-01-15T13:16:51.449Z,97486.84
2023-01-15T13:19:09.731Z,97485.97
2023-01-15T13:21:17.239Z,97489.13
2023-01-15T13:23:40.337Z,97496.06
2023-01-15T13:26:01.215Z,97499.53
2023-01-15T13:28:21.456Z,97500.19
2023-01-15T13:30:48.005Z,97500.41
2023-01-15T13:32:56.615Z,97507.13
2023-01-15T13:35:10.132Z,97512.19
2023-01-15T13:37:24.957Z,97517.00
2023-01-15T13:39:39.912Z,97497.38
2023-01-15T13:42:04.140Z,97511.88
2023-01-15T13:44:15.630Z,97498.34
2023-01-15T13:46:23.871Z,97502.88
2023-01-15T13:48:33.837Z,97503.53
2023-01-15T13:50:43.278Z,97508.13
2023-01-15T13:52:49.386Z,97519.22
2023-01-15T13:54:55.766Z,97525.91
2023-01-15T13:57:13.288Z,97526.09
2023-01-15T13:59:42.685Z,97524.88
2023-01-15T14:01:47.656Z,97521.47
2023-01-15T14:04:06.543Z,97537.41
2023-01-15T14:06:12.594Z,97525.22
2023-01-15T14:08:19.696Z,97510.03
2023-01-15T14:10:36.840Z,97515.69
2023-01-15T14:12:57.259Z,97512.97
2023-01-15T14:15:28.694Z,97531.25
2023-01-15T14:18:13.492Z,97522.34
2023-01-15T14:20:39.753Z,97526.81
2023-01-15T14:22:54.345Z,97529.25
2023-01-15T14:25:21.478Z,97521.53
2023-01-15T14:27:44.374Z,97510.69
2023-01-15T14:30:11.616Z,97503.38
2023-01-15T14:32:30.931Z,97515.47
2023-01-15T14:34:38.533Z,97518.97
2023-01-15T14:36:52.243Z,97523.13
2023-01-15T14:39:00.891Z,97530.94
2023-01-15T14:41:12.713Z,97536.59
2023-01-15T14:43:20.421Z,97538.47
2023-01-15T14:45:32.329Z,97539.91
2023-01-15T14:47:39.872Z,97535.25
2023-01-15T14:49:50.093Z,97520.72
2023-01-15T14:51:55.142Z,97513.06
2023-01-15T14:54:02.344Z,97507.09
2023-01-15T14:56:16.286Z,97518.53
2023-01-15T14:58:35.667Z,97529.41
2023-01-15T15:00:51.020Z,97527.75
2023-01-15T15:02:56.101Z,97522.19
2023-01-15T15:05:03.157Z,97530.75
2023-01-15T15:07:14.392Z,97525.09
2023-01-15T15:09:36.388Z,97535.59
2023-01-15T15:12:01.019Z,97554.44
2023-01-15T15:14:09.003Z,97546.97
2023-01-15T15:16:24.912Z,97545.31
2023-01-15T15:18:36.314Z,97552.06
2023-01-15T15:20:54.128Z,97550.59
2023-01-15T15:23:05.055Z,97540.44
2023-01-15T15:25:17.625Z,97550.97
2023-01-15T15:27:26.811Z,97538.69
2023-01-15T15:29:32.008Z,97552.38
2023-01-15T15:31:42.541Z,97540.56
2023-01-15T15:33:49.873Z,97545.81
2023-01-15T15:35:57.737Z,97541.06
2023-01-15T15:38:06.326Z,97546.09
2023-01-15T15:40:20.140Z,97540.94
2023-01-15T15:42:43.691Z,97543.19
2023-01-15T15:45:06.197Z,97527.88
2023-01-15T15:47:37.133Z,97544.47
2023-01-15T15:49:42.993Z,97536.53
2023-01-15T15:51:49.664Z,97542.31
2023-01-15T15:54:05.139Z,97538.03
2023-01-15T15:56:10.116Z,97529.44
2023-01-15T15:58:24.087Z,97530.13
2023-01-15T16:00:33.513Z,97544.41
2023-01-15T16:02:44.210Z,97528.09
2023-01-15T16:04:50.588Z,97538.41
2023-01-15T16:06:55.437Z,97529.75
2023-01-15T16:09:04.972Z,97533.13
2023-01-15T16:11:13.738Z,97531.59
2023-01-15T16:13:26.436Z,97539.34
2023-01-15T16:15:34.065Z,97531.56
2023-01-15T16:17:44.104Z,97538.50
2023-01-15T16:19:49.794Z,97533.25
2023-01-15T16:21:55.919Z,97541.00
2023-01-15T16:24:04.440Z,97542.72
2023-01-15T16:26:15.371Z,97542.75
2023-01-15T16:28:27.525Z,97541.88
2023-01-15T16:30:36.681Z,97547.88
2023-01-15T16:32:49.867Z,97539.19
2023-01-15T16:35:03.611Z,97553.84
2023-01-15T16:37:27.115Z,97541.16
2023-01-15T16:39:39.966Z,97549.81
2023-01-15T16:41:48.561Z,97551.78
2023-01-15T16:43:58.405Z,97548.19
2023-01-15T16:46:07.426Z,97552.44
2023-01-15T16:48:30.074Z,97558.75
2023-01-15T16:50:36.055Z,97558.59
2023-01-15T16:52:54.643Z,97552.44
2023-01-15T16:55:01.315Z,97549.00
2023-01-15T16:57:08.008Z,97549.75
2023-01-15T16:59:19.560Z,97555.63
2023-01-15T17:01:35.312Z,97559.94
2023-01-15T17:03:43.898Z,97564.50
2023-01-15T17:05:50.145Z,97572.22
2023-01-15T17:07:58.061Z,97573.97
2023-01-15T17:10:04.508Z,97574.06
2023-01-15T17:12:12.272Z,97574.25
2023-01-15T17:14:24.518Z,97559.59
2023-01-15T17:16:29.401Z,97565.63
2023-01-15T17:18:34.783Z,97562.19
2023-01-15T17:20:44.191Z,97564.84
2023-01-15T17:22:50.778Z,97561.38
2023-01-15T17:24:57.652Z,97550.22
2023-01-15T17:27:02.559Z,97551.97
2023-01-15T17:29:07.426Z,97544.31
2023-01-15T17:31:23.102Z,97544.34
2023-01-15T17:33:33.232Z,97543.50
2023-01-15T17:35:42.933Z,97541.03
2023-01-15T17:37:47.847Z,97538.38
2023-01-15T17:39:52.807Z,97547.03
2023-01-15T17:41:57.729Z,97544.47
2023-01-15T17:44:03.065Z,97541.97
2023-01-15T17:46:08.381Z,97544.47
2023-01-15T17:48:13.662Z,97541.16
2023-01-15T17:50:20.240Z,97540.31
2023-01-15T17:52:27.701Z,97536.94
2023-01-15T17:54:44.991Z,97532.66
2023-01-15T17:57:02.226Z,97543.00
2023-01-15T17:59:19.539Z,97543.97
2023-01-15T18:01:39.844Z,97545.69
2023-01-15T18:04:02.324Z,97526.03
2023-01-15T18:06:08.715Z,97526.97
2023-01-15T18:08:18.843Z,97523.56
2023-01-15T18:10:23.814Z,97524.47
2023-01-15T18:12:28.896Z,97520.19
2023-01-15T18:14:34.050Z,97528.91
2023-01-15T18:16:39.161Z,97529.09
2023-01-15T18:18:43.767Z,97524.06
2023-01-15T18:20:51.394Z,97523.34
2023-01-15T18:22:56.607Z,97524.97
2023-01-15T18:25:04.064Z,97514.03
2023-01-15T18:27:08.872Z,97512.44
2023-01-15T18:29:13.908Z,97515.78
2023-01-15T18:31:18.616Z,97514.13
2023-01-15T18:33:23.411Z,97520.94
2023-01-15T18:35:28.215Z,97528.53
2023-01-15T18:37:34.550Z,97519.91
2023-01-15T18:39:39.843Z,97518.97
2023-01-15T18:41:59.710Z,97515.41
2023-01-15T18:44:17.554Z,97517.16
2023-01-15T18:46:35.046Z,97516.31
2023-01-15T18:48:39.895Z,97512.88
2023-01-15T18:50:44.985Z,97506.84
2023-01-15T18:52:55.894Z,97506.00
2023-01-15T18:55:00.748Z,97503.31
2023-01-15T18:57:08.723Z,97499.00
2023-01-15T18:59:15.902Z,97509.41
2023-01-15T19:01:20.810Z,97504.19
2023-01-15T19:03:26.294Z,97503.25
2023-01-15T19:05:31.189Z,97504.88
2023-01-15T19:07:38.319Z,97502.31
2023-01-15T19:09:43.200Z,97504.78
2023-01-15T19:11:47.976Z,97497.28
2023-01-15T19:14:07.669Z,97499.66
2023-01-15T19:16:25.723Z,97493.66
2023-01-15T19:18:53.491Z,97492.94
2023-01-15T19:20:58.291Z,97504.88
2023-01-15T19:23:03.403Z,97488.78
2023-01-15T19:25:11.152Z,97486.97
2023-01-15T19:27:16.777Z,97503.84
2023-01-15T19:29:24.226Z,97482.38
2023-01-15T19:31:41.495Z,97490.97
2023-01-15T19:33:46.493Z,97479.94
2023-01-15T19:35:55.762Z,97477.09
2023-01-15T19:38:00.751Z,97478.75
2023-01-15T19:40:06.066Z,97478.81
2023-01-15T19:42:25.225Z,97475.34
2023-01-15T19:44:45.010Z,97469.44
2023-01-15T19:47:02.367Z,97472.06
2023-01-15T19:49:24.162Z,97470.28
2023-01-15T19:51:49.530Z,97469.38
2023-01-15T19:53:54.385Z,97473.47
2023-01-15T19:55:59.302Z,97462.34
2023-01-15T19:58:05.881Z,97463.31
2023-01-15T20:00:16.570Z,97456.28
2023-01-15T20:02:22.474Z,97459.59
2023-01-15T20:04:28.370Z,97450.22
2023-01-15T20:06:33.815Z,97453.31
2023-01-15T20:08:41.079Z,97460.91
2023-01-15T20:10:47.781Z,97452.88
2023-01-15T20:13:05.599Z,97447.44
2023-01-15T20:15:13.549Z,97449.91
2023-01-15T20:17:19.119Z,97435.34
2023-01-15T20:19:23.923Z,97436.13
2023-01-15T20:21:28.868Z,97432.63
2023-01-15T20:23:33.948Z,97431.66
2023-01-15T20:25:38.913Z,97432.44
2023-01-15T20:27:44.749Z,97429.28
2023-01-15T20:29:52.070Z,97428.50
2023-01-15T20:31:59.805Z,97419.13
2023-01-15T20:34:04.671Z,97426.19
2023-01-15T20:36:10.697Z,97419.38
2023-01-15T20:38:17.816Z,97417.81
2023-01-15T20:40:27.108Z,97415.41
2023-01-15T20:42:45.879Z,97413.06
2023-01-15T20:44:55.589Z,97408.97
2023-01-15T20:47:25.896Z,97415.94
2023-01-15T20:49:32.612Z,97419.59
2023-01-15T20:51:37.480Z,97416.28
2023-01-15T20:53:43.467Z,97418.94
2023-01-15T20:55:57.378Z,97413.19
2023-01-15T20:58:04.999Z,97422.75
2023-01-15T21:00:15.892Z,97416.66
2023-01-15T21:02:25.869Z,97420.88
2023-01-15T21:04:33.401Z,97412.41
2023-01-15T21:06:38.556Z,97410.00
2023-01-15T21:08:46.516Z,97411.72
2023-01-15T21:10:55.432Z,97417.81
2023-01-15T21:13:00.456Z,97409.25
2023-01-15T21:15:05.341Z,97415.31
2023-01-15T21:17:10.478Z,97415.41
2023-01-15T21:19:21.227Z,97411.25
2023-01-15T21:21:26.244Z,97406.13
2023-01-15T21:23:31.014Z,97413.88
2023-01-15T21:25:38.288Z,97397.56
2023-01-15T21:27:43.320Z,97404.41
2023-01-15T21:29:51.840Z,97397.56
2023-01-15T21:31:56.811Z,97389.03
2023-01-15T21:34:01.666Z,97384.78
2023-01-15T21:36:15.025Z,97387.28
2023-01-15T21:38:19.871Z,97383.97
2023-01-15T21:40:27.107Z,97378.00
2023-01-15T21:42:44.358Z,97378.16
2023-01-15T21:44:49.267Z,97382.31
2023-01-15T21:46:55.287Z,97372.19
2023-01-15T21:49:01.294Z,97367.84
2023-01-15T21:51:11.824Z,97365.22
2023-01-15T21:53:16.621Z,97365.22
2023-01-15T21:55:21.498Z,97372.19
2023-01-15T21:57:26.309Z,97362.91
2023-01-15T21:59:34.037Z,97357.75
2023-01-15T22:01:43.036Z,97358.63
2023-01-15T22:03:48.120Z,97359.41
2023-01-15T22:05:53.039Z,97358.59
2023-01-15T22:08:03.238Z,97358.69
2023-01-15T22:10:09.269Z,97348.41
2023-01-15T22:12:15.349Z,97346.03
2023-01-15T22:14:23.783Z,97342.69
2023-01-15T22:16:28.645Z,97347.09
2023-01-15T22:18:34.173Z,97342.88
2023-01-15T22:20:39.388Z,97341.97
2023-01-15T22:22:44.002Z,97334.28
2023-01-15T22:24:54.278Z,97330.97
2023-01-15T22:26:59.208Z,97330.97
2023-01-15T22:29:04.122Z,97335.34
2023-01-15T22:31:09.510Z,97325.81
2023-01-15T22:33:14.450Z,97319.03
2023-01-15T22:35:19.352Z,97319.91
2023-01-15T22:37:24.111Z,97316.47
2023-01-15T22:39:30.143Z,97313.03
2023-01-15T22:41:50.103Z,97311.28
2023-01-15T22:43:54.912Z,97306.31
2023-01-15T22:45:59.790Z,97312.25
2023-01-15T22:48:04.684Z,97304.50
2023-01-15T22:50:10.192Z,97307.97
2023-01-15T22:52:15.725Z,97299.44
2023-01-15T22:54:21.127Z,97296.88
2023-01-15T22:56:27.221Z,97285.69
2023-01-15T22:58:34.676Z,97292.53
2023-01-15T23:00:39.496Z,97288.31
2023-01-15T23:03:05.244Z,97283.19
2023-01-15T23:05:11.097Z,97269.56
2023-01-15T23:07:15.946Z,97269.56
2023-01-15T23:09:21.397Z,97255.97
2023-01-15T23:11:26.813Z,97257.56
2023-01-15T23:13:36.349Z,97261.06
2023-01-15T23:15:41.497Z,97255.81
2023-01-15T23:17:46.706Z,97248.16
2023-01-15T23:19:53.815Z,97252.50
2023-01-15T23:22:00.573Z,97244.78
2023-01-15T23:24:05.848Z,97253.31
2023-01-15T23:26:12.671Z,97241.28
2023-01-15T23:28:17.917Z,97240.34
2023-01-15T23:30:25.579Z,97239.34
2023-01-15T23:32:30.392Z,97228.22
2023-01-15T23:34:35.383Z,97229.97
2023-01-15T23:36:40.213Z,97225.81
2023-01-15T23:38:46.775Z,97227.47
2023-01-15T23:40:54.911Z,97215.34
2023-01-15T23:43:12.219Z,97218.88
2023-01-15T23:45:29.540Z,97211.13
2023-01-15T23:47:36.968Z,97207.00
2023-01-15T23:49:42.026Z,97203.59
2023-01-15T23:51:46.994Z,97201.13
2023-01-15T23:53:52.284Z,97198.63
2023-01-15T23:55:59.557Z,97195.25
2023-01-15T23:58:04.355Z,97197.75
